createdAt,value
2017-10-18T00:00:50.196Z,1012.02
2017-10-18T00:01:50.193Z,1012.02
2017-10-18T00:02:50.196Z,1012.07
2017-10-18T00:03:50.192Z,1012.01
2017-10-18T00:04:50.187Z,1012.09
2017-10-18T00:05:50.185Z,1012.05
2017-10-18T00:06:50.182Z,1012.08
2017-10-18T00:07:50.178Z,1012.01
2017-10-18T00:08:50.175Z,1012.04
2017-10-18T00:09:50.172Z,1012.04
2017-10-18T00:10:50.166Z,1012.02
2017-10-18T00:11:50.161Z,1012.07
2017-10-18T00:12:50.166Z,1012.01
2017-10-18T00:13:50.156Z,1012.03
2017-10-18T00:14:50.151Z,1012.07
2017-10-18T00:15:50.149Z,1012.02
2017-10-18T00:16:50.145Z,1012.05
2017-10-18T00:17:50.143Z,1012.08
2017-10-18T00:18:50.144Z,1012.10
2017-10-18T00:19:50.140Z,1012.01
2017-10-18T00:20:50.136Z,1011.97
2017-10-18T00:21:50.133Z,1012.05
2017-10-18T00:22:50.130Z,1012.01
2017-10-18T00:23:50.128Z,1011.89
2017-10-18T00:24:50.124Z,1011.96
2017-10-18T00:25:50.123Z,1011.97
2017-10-18T00:26:50.114Z,1011.97
2017-10-18T00:27:50.110Z,1011.98
2017-10-18T00:28:50.106Z,1011.97
2017-10-18T00:29:50.102Z,1012.02
2017-10-18T00:30:50.101Z,1012.02
2017-10-18T00:31:50.098Z,1012.02
2017-10-18T00:32:50.093Z,1011.99
2017-10-18T00:33:50.091Z,1012.02
2017-10-18T00:34:50.090Z,1011.98
2017-10-18T00:35:50.089Z,1011.97
2017-10-18T00:36:50.084Z,1012.00
2017-10-18T00:37:50.082Z,1011.94
2017-10-18T00:38:50.079Z,1011.94
2017-10-18T00:39:50.076Z,1011.93
2017-10-18T00:40:50.071Z,1011.93
2017-10-18T00:41:50.068Z,1011.90
2017-10-18T00:42:50.062Z,1011.87
2017-10-18T00:43:50.058Z,1011.85
2017-10-18T00:44:50.054Z,1011.86
2017-10-18T00:45:50.049Z,1011.81
2017-10-18T00:46:50.047Z,1011.83
2017-10-18T00:47:50.043Z,1011.79
2017-10-18T00:48:50.041Z,1011.78
2017-10-18T00:49:50.037Z,1011.81
2017-10-18T00:50:50.038Z,1011.80
2017-10-18T00:51:50.036Z,1011.80
2017-10-18T00:52:50.031Z,1011.82
2017-10-18T00:53:50.028Z,1011.74
2017-10-18T00:54:50.024Z,1011.73
2017-10-18T00:55:50.021Z,1011.73
2017-10-18T00:56:50.017Z,1011.75
2017-10-18T00:57:50.013Z,1011.74
2017-10-18T00:58:50.007Z,1011.70
2017-10-18T00:59:50.003Z,1011.69
2017-10-18T01:00:49.999Z,1011.68
2017-10-18T01:01:49.995Z,1011.67
2017-10-18T01:02:49.997Z,1011.70
2017-10-18T01:03:49.993Z,1011.73
2017-10-18T01:04:49.989Z,1011.65
2017-10-18T01:05:49.987Z,1011.69
2017-10-18T01:06:49.978Z,1011.67
2017-10-18T01:07:49.976Z,1011.67
2017-10-18T01:08:49.970Z,1011.68
2017-10-18T01:09:49.968Z,1011.68
2017-10-18T01:10:49.965Z,1011.62
2017-10-18T01:11:49.961Z,1011.62
2017-10-18T01:12:49.958Z,1011.64
2017-10-18T01:13:49.958Z,1011.60
2017-10-18T01:14:49.955Z,1011.63
2017-10-18T01:15:49.952Z,1011.58
2017-10-18T01:16:49.948Z,1011.57
2017-10-18T01:17:49.945Z,1011.61
2017-10-18T01:18:49.942Z,1011.59
2017-10-18T01:19:49.938Z,1011.58
2017-10-18T01:20:49.935Z,1011.56
2017-10-18T01:21:49.930Z,1011.55
2017-10-18T01:22:49.924Z,1011.57
2017-10-18T01:23:49.919Z,1011.55
2017-10-18T01:24:49.916Z,1011.50
2017-10-18T01:25:49.912Z,1011.49
2017-10-18T01:26:49.909Z,1011.49
2017-10-18T01:27:49.906Z,1011.50
2017-10-18T01:28:49.902Z,1011.45
2017-10-18T01:29:49.899Z,1011.49
2017-10-18T01:30:49.900Z,1011.40
2017-10-18T01:31:49.897Z,1011.42
2017-10-18T01:32:49.893Z,1011.40
2017-10-18T01:33:49.889Z,1011.41
2017-10-18T01:34:49.885Z,1011.39
2017-10-18T01:35:49.881Z,1011.41
2017-10-18T01:36:49.876Z,1011.40
2017-10-18T01:37:49.874Z,1011.44
2017-10-18T01:38:49.866Z,1011.40
2017-10-18T01:39:49.861Z,1011.37
2017-10-18T01:40:49.860Z,1011.35
2017-10-18T01:41:49.854Z,1011.36
2017-10-18T01:42:49.850Z,1011.37
2017-10-18T01:43:49.847Z,1011.38
2017-10-18T01:44:49.842Z,1011.33
2017-10-18T01:45:49.839Z,1011.37
2017-10-18T01:46:49.841Z,1011.38
2017-10-18T01:47:49.837Z,1011.32
2017-10-18T01:48:49.833Z,1011.34
2017-10-18T01:49:49.829Z,1011.30
2017-10-18T01:50:49.825Z,1011.34
2017-10-18T01:51:49.821Z,1011.30
2017-10-18T01:52:49.817Z,1011.27
2017-10-18T01:53:49.813Z,1011.28
2017-10-18T01:54:49.806Z,1011.30
2017-10-18T01:55:49.802Z,1011.27
2017-10-18T01:56:49.796Z,1011.30
2017-10-18T01:57:49.794Z,1011.26
2017-10-18T01:58:49.790Z,1011.27
2017-10-18T01:59:49.787Z,1011.29
2017-10-18T02:00:49.781Z,1011.28
2017-10-18T02:01:49.779Z,1011.25
2017-10-18T02:02:49.779Z,1011.27
2017-10-18T02:03:49.777Z,1011.26
2017-10-18T02:04:49.769Z,1011.24
2017-10-18T02:05:49.767Z,1011.25
2017-10-18T02:06:49.760Z,1011.27
2017-10-18T02:07:49.755Z,1011.24
2017-10-18T02:08:49.750Z,1011.19
2017-10-18T02:09:49.747Z,1011.19
2017-10-18T02:10:49.748Z,1011.16
2017-10-18T02:11:49.743Z,1011.13
2017-10-18T02:12:49.738Z,1011.12
2017-10-18T02:13:49.736Z,1011.13
2017-10-18T02:14:49.732Z,1011.11
2017-10-18T02:15:49.730Z,1011.10
2017-10-18T02:16:49.723Z,1011.11
2017-10-18T02:17:49.720Z,1011.08
2017-10-18T02:18:49.711Z,1011.12
2017-10-18T02:19:49.707Z,1011.13
2017-10-18T02:20:49.704Z,1011.11
2017-10-18T02:21:49.700Z,1011.14
2017-10-18T02:22:49.696Z,1011.11
2017-10-18T02:23:49.692Z,1011.16
2017-10-18T02:24:49.689Z,1011.11
2017-10-18T02:25:49.685Z,1011.12
2017-10-18T02:26:49.683Z,1011.10
2017-10-18T02:27:49.681Z,1011.09
2017-10-18T02:28:49.676Z,1011.10
2017-10-18T02:29:49.673Z,1011.08
2017-10-18T02:30:49.669Z,1011.05
2017-10-18T02:31:49.672Z,1011.09
2017-10-18T02:32:49.662Z,1011.06
2017-10-18T02:33:49.659Z,1011.09
2017-10-18T02:34:49.650Z,1011.04
2017-10-18T02:35:49.646Z,1011.05
2017-10-18T02:36:49.641Z,1011.02
2017-10-18T02:37:49.637Z,1011.05
2017-10-18T02:38:49.635Z,1011.04
2017-10-18T02:39:49.629Z,1011.01
2017-10-18T02:40:49.626Z,1011.01
2017-10-18T02:41:49.622Z,1011.00
2017-10-18T02:42:49.622Z,1011.02
2017-10-18T02:43:49.618Z,1011.03
2017-10-18T02:44:49.622Z,1010.99
2017-10-18T02:45:49.628Z,1011.00
2017-10-18T02:46:49.607Z,1011.03
2017-10-18T02:47:49.601Z,1010.99
2017-10-18T02:48:49.598Z,1010.97
2017-10-18T02:49:49.594Z,1010.99
2017-10-18T02:50:49.585Z,1011.02
2017-10-18T02:51:49.582Z,1011.01
2017-10-18T02:52:49.577Z,1011.02
2017-10-18T02:53:49.574Z,1010.96
2017-10-18T02:54:49.569Z,1010.94
2017-10-18T02:55:49.567Z,1010.94
2017-10-18T02:56:49.560Z,1010.98
2017-10-18T02:57:49.561Z,1010.93
2017-10-18T02:58:49.558Z,1010.87
2017-10-18T02:59:49.554Z,1010.95
2017-10-18T03:00:49.553Z,1010.86
2017-10-18T03:01:49.544Z,1010.85
2017-10-18T03:02:49.540Z,1010.83
2017-10-18T03:03:49.536Z,1010.85
2017-10-18T03:04:49.531Z,1010.85
2017-10-18T03:05:49.529Z,1010.80
2017-10-18T03:06:49.520Z,1010.80
2017-10-18T03:07:49.516Z,1010.82
2017-10-18T03:08:49.511Z,1010.78
2017-10-18T03:09:49.510Z,1010.79
2017-10-18T03:10:49.507Z,1010.80
2017-10-18T03:11:49.503Z,1010.82
2017-10-18T03:12:49.497Z,1010.81
2017-10-18T03:13:49.500Z,1010.82
2017-10-18T03:14:49.488Z,1010.78
2017-10-18T03:15:49.482Z,1010.79
2017-10-18T03:16:49.476Z,1010.81
2017-10-18T03:17:49.473Z,1010.74
2017-10-18T03:18:49.469Z,1010.77
2017-10-18T03:19:49.466Z,1010.78
2017-10-18T03:20:49.461Z,1010.72
2017-10-18T03:21:49.464Z,1010.70
2017-10-18T03:22:49.457Z,1010.68
2017-10-18T03:23:49.465Z,1010.72
2017-10-18T03:24:49.450Z,1010.73
2017-10-18T03:25:49.446Z,1010.68
2017-10-18T03:26:49.441Z,1010.71
2017-10-18T03:27:49.436Z,1010.73
2017-10-18T03:28:49.433Z,1010.76
2017-10-18T03:29:49.428Z,1010.78
2017-10-18T03:30:49.421Z,1010.74
2017-10-18T03:31:49.417Z,1010.73
2017-10-18T03:32:49.410Z,1010.77
2017-10-18T03:33:49.406Z,1010.76
2017-10-18T03:34:49.403Z,1010.68
2017-10-18T03:35:49.399Z,1010.73
2017-10-18T03:36:49.394Z,1010.76
2017-10-18T03:37:49.391Z,1010.72
2017-10-18T03:38:49.390Z,1010.70
2017-10-18T03:39:49.388Z,1010.69
2017-10-18T03:40:49.388Z,1010.69
2017-10-18T03:41:49.378Z,1010.74
2017-10-18T03:42:49.372Z,1010.73
2017-10-18T03:43:49.369Z,1010.69
2017-10-18T03:44:49.372Z,1010.69
2017-10-18T03:45:49.362Z,1010.70
2017-10-18T03:46:49.352Z,1010.68
2017-10-18T03:47:49.349Z,1010.72
2017-10-18T03:48:49.343Z,1010.71
2017-10-18T03:49:49.340Z,1010.72
2017-10-18T03:50:49.337Z,1010.73
2017-10-18T03:51:49.334Z,1010.73
2017-10-18T03:52:49.327Z,1010.75
2017-10-18T03:53:49.322Z,1010.73
2017-10-18T03:54:49.326Z,1010.71
2017-10-18T03:55:49.321Z,1010.67
2017-10-18T03:56:49.314Z,1010.65
2017-10-18T03:57:49.309Z,1010.65
2017-10-18T03:58:49.305Z,1010.61
2017-10-18T03:59:49.301Z,1010.55
2017-10-18T04:00:49.298Z,1010.59
2017-10-18T04:01:49.294Z,1010.56
2017-10-18T04:02:49.284Z,1010.55
2017-10-18T04:03:49.280Z,1010.50
2017-10-18T04:04:49.275Z,1010.48
2017-10-18T04:05:49.273Z,1010.47
2017-10-18T04:06:49.268Z,1010.42
2017-10-18T04:07:49.266Z,1010.47
2017-10-18T04:08:49.259Z,1010.45
2017-10-18T04:09:49.254Z,1010.45
2017-10-18T04:10:49.255Z,1010.46
2017-10-18T04:11:49.251Z,1010.44
2017-10-18T04:12:49.245Z,1010.47
2017-10-18T04:13:49.240Z,1010.44
2017-10-18T04:14:49.237Z,1010.46
2017-10-18T04:15:49.233Z,1010.44
2017-10-18T04:16:49.227Z,1010.45
2017-10-18T04:17:49.224Z,1010.40
2017-10-18T04:18:49.216Z,1010.44
2017-10-18T04:19:49.211Z,1010.38
2017-10-18T04:20:49.207Z,1010.40
2017-10-18T04:21:49.202Z,1010.34
2017-10-18T04:22:49.197Z,1010.34
2017-10-18T04:23:49.193Z,1010.33
2017-10-18T04:24:49.188Z,1010.33
2017-10-18T04:25:49.185Z,1010.25
2017-10-18T04:26:49.184Z,1010.30
2017-10-18T04:27:49.179Z,1010.24
2017-10-18T04:28:49.175Z,1010.26
2017-10-18T04:29:49.171Z,1010.27
2017-10-18T04:30:49.166Z,1010.27
2017-10-18T04:31:49.162Z,1010.27
2017-10-18T04:32:49.157Z,1010.28
2017-10-18T04:33:49.153Z,1010.23
2017-10-18T04:34:49.145Z,1010.27
2017-10-18T04:35:49.141Z,1010.23
2017-10-18T04:36:49.134Z,1010.21
2017-10-18T04:37:49.130Z,1010.24
2017-10-18T04:38:49.127Z,1010.18
2017-10-18T04:39:49.122Z,1010.15
2017-10-18T04:40:49.132Z,1010.18
2017-10-18T04:41:49.112Z,1010.15
2017-10-18T04:42:49.113Z,1010.10
2017-10-18T04:43:49.108Z,1010.12
2017-10-18T04:44:49.102Z,1010.13
2017-10-18T04:45:49.099Z,1010.12
2017-10-18T04:46:49.094Z,1010.19
2017-10-18T04:47:49.090Z,1010.08
2017-10-18T04:48:49.086Z,1010.13
2017-10-18T04:49:49.081Z,1010.15
2017-10-18T04:50:49.071Z,1010.07
2017-10-18T04:51:49.068Z,1010.08
2017-10-18T04:52:49.062Z,1010.12
2017-10-18T04:53:49.061Z,1010.11
2017-10-18T04:54:49.054Z,1010.10
2017-10-18T04:55:49.051Z,1010.15
2017-10-18T04:56:49.044Z,1010.06
2017-10-18T04:57:49.040Z,1010.12
2017-10-18T04:58:49.039Z,1010.08
2017-10-18T04:59:49.036Z,1010.06
2017-10-18T05:00:49.031Z,1010.06
2017-10-18T05:01:49.027Z,1010.07
2017-10-18T05:02:49.022Z,1010.02
2017-10-18T05:03:49.017Z,1010.02
2017-10-18T05:04:49.013Z,1010.01
2017-10-18T05:05:49.009Z,1010.05
2017-10-18T05:06:49.000Z,1010.03
2017-10-18T05:07:48.994Z,1010.03
2017-10-18T05:08:48.991Z,1009.97
2017-10-18T05:09:48.988Z,1010.02
2017-10-18T05:10:48.980Z,1009.97
2017-10-18T05:11:48.977Z,1009.96
2017-10-18T05:12:48.972Z,1009.97
2017-10-18T05:13:48.967Z,1009.95
2017-10-18T05:14:48.967Z,1009.94
2017-10-18T05:15:48.963Z,1009.91
2017-10-18T05:16:48.957Z,1009.91
2017-10-18T05:17:48.952Z,1009.89
2017-10-18T05:18:48.943Z,1009.90
2017-10-18T05:19:48.940Z,1009.91
2017-10-18T05:20:48.933Z,1009.92
2017-10-18T05:21:48.933Z,1009.90
2017-10-18T05:22:48.929Z,1009.90
2017-10-18T05:23:48.924Z,1009.91
2017-10-18T05:24:48.919Z,1009.91
2017-10-18T05:25:48.913Z,1009.87
2017-10-18T05:26:48.917Z,1009.83
2017-10-18T05:27:48.906Z,1009.88
2017-10-18T05:28:48.898Z,1009.82
2017-10-18T05:29:48.895Z,1009.79
2017-10-18T05:30:48.888Z,1009.80
2017-10-18T05:31:48.883Z,1009.77
2017-10-18T05:32:48.876Z,1009.76
2017-10-18T05:33:48.871Z,1009.79
2017-10-18T05:34:48.868Z,1009.70
2017-10-18T05:35:48.862Z,1009.71
2017-10-18T05:36:48.858Z,1009.67
2017-10-18T05:37:48.853Z,1009.69
2017-10-18T05:38:48.852Z,1009.70
2017-10-18T05:39:48.848Z,1009.70
2017-10-18T05:40:48.842Z,1009.69
2017-10-18T05:41:48.838Z,1009.70
2017-10-18T05:42:48.833Z,1009.71
2017-10-18T05:43:48.826Z,1009.71
2017-10-18T05:44:48.822Z,1009.67
2017-10-18T05:45:48.818Z,1009.72
2017-10-18T05:46:48.807Z,1009.71
2017-10-18T05:47:48.804Z,1009.76
2017-10-18T05:48:48.799Z,1009.75
2017-10-18T05:49:48.798Z,1009.76
2017-10-18T05:50:48.792Z,1009.75
2017-10-18T05:51:48.785Z,1009.72
2017-10-18T05:52:48.780Z,1009.78
2017-10-18T05:53:48.775Z,1009.80
2017-10-18T05:54:48.774Z,1009.80
2017-10-18T05:55:48.769Z,1009.82
2017-10-18T05:56:48.764Z,1009.77
2017-10-18T05:57:48.759Z,1009.82
2017-10-18T05:58:48.754Z,1009.84
2017-10-18T05:59:48.749Z,1009.87
2017-10-18T06:00:48.743Z,1009.83
2017-10-18T06:01:48.738Z,1009.86
2017-10-18T06:02:48.729Z,1009.84
2017-10-18T06:03:48.726Z,1009.78
2017-10-18T06:04:48.719Z,1009.81
2017-10-18T06:05:48.716Z,1009.75
2017-10-18T06:06:48.711Z,1009.74
2017-10-18T06:07:48.707Z,1009.77
2017-10-18T06:08:48.700Z,1009.77
2017-10-18T06:09:48.698Z,1009.78
2017-10-18T06:10:48.695Z,1009.80
2017-10-18T06:11:48.692Z,1009.84
2017-10-18T06:12:48.686Z,1009.82
2017-10-18T06:13:48.684Z,1009.79
2017-10-18T06:14:48.676Z,1009.82
2017-10-18T06:15:48.671Z,1009.84
2017-10-18T06:16:48.666Z,1009.85
2017-10-18T06:17:48.661Z,1009.87
2017-10-18T06:18:48.653Z,1009.84
2017-10-18T06:19:48.648Z,1009.80
2017-10-18T06:20:48.641Z,1009.82
2017-10-18T06:21:48.637Z,1009.85
2017-10-18T06:22:48.637Z,1009.83
2017-10-18T06:23:48.631Z,1009.82
2017-10-18T06:24:48.627Z,1009.83
2017-10-18T06:25:48.622Z,1009.85
2017-10-18T06:26:48.614Z,1009.82
2017-10-18T06:27:48.609Z,1009.93
2017-10-18T06:28:48.602Z,1009.84
2017-10-18T06:29:48.599Z,1009.85
2017-10-18T06:30:48.596Z,1009.92
2017-10-18T06:31:48.590Z,1009.93
2017-10-18T06:32:48.584Z,1009.94
2017-10-18T06:33:48.578Z,1009.86
2017-10-18T06:34:48.579Z,1009.88
2017-10-18T06:35:48.574Z,1009.79
2017-10-18T06:36:48.569Z,1009.81
2017-10-18T06:37:48.563Z,1009.86
2017-10-18T06:38:48.562Z,1009.86
2017-10-18T06:39:48.556Z,1009.86
2017-10-18T06:40:48.550Z,1009.86
2017-10-18T06:41:48.545Z,1009.89
2017-10-18T06:42:48.538Z,1009.86
2017-10-18T06:43:48.534Z,1009.88
2017-10-18T06:44:48.529Z,1009.88
2017-10-18T06:45:48.524Z,1009.88
2017-10-18T06:46:48.520Z,1009.85
2017-10-18T06:47:48.516Z,1009.89
2017-10-18T06:48:48.510Z,1009.86
2017-10-18T06:49:48.509Z,1009.97
2017-10-18T06:50:48.507Z,1010.05
2017-10-18T06:51:48.503Z,1010.15
2017-10-18T06:52:48.500Z,1010.29
2017-10-18T06:53:48.495Z,1010.26
2017-10-18T06:54:48.491Z,1010.27
2017-10-18T06:55:48.486Z,1010.33
2017-10-18T06:56:48.482Z,1010.41
2017-10-18T06:57:48.479Z,1010.34
2017-10-18T06:58:48.471Z,1010.40
2017-10-18T06:59:48.468Z,1010.47
2017-10-18T07:00:48.466Z,1010.53
2017-10-18T07:01:48.461Z,1010.47
2017-10-18T07:02:48.459Z,1010.53
2017-10-18T07:03:48.458Z,1010.62
2017-10-18T07:04:48.456Z,1010.60
2017-10-18T07:05:48.453Z,1010.67
2017-10-18T07:06:48.456Z,1010.68
2017-10-18T07:07:48.455Z,1010.71
2017-10-18T07:08:48.453Z,1010.74
2017-10-18T07:09:48.452Z,1010.73
2017-10-18T07:10:48.451Z,1010.72
2017-10-18T07:11:48.452Z,1010.76
2017-10-18T07:12:48.451Z,1010.78
2017-10-18T07:13:48.449Z,1010.76
2017-10-18T07:14:48.447Z,1010.77
2017-10-18T07:15:48.448Z,1010.71
2017-10-18T07:16:48.448Z,1010.77
2017-10-18T07:17:48.448Z,1010.80
2017-10-18T07:18:48.450Z,1010.76
2017-10-18T07:19:48.451Z,1010.80
2017-10-18T07:20:48.452Z,1010.83
2017-10-18T07:21:48.455Z,1010.87
2017-10-18T07:22:48.460Z,1010.90
2017-10-18T07:23:48.463Z,1010.94
2017-10-18T07:24:48.463Z,1010.91
2017-10-18T07:25:48.467Z,1010.97
2017-10-18T07:26:48.464Z,1011.03
2017-10-18T07:27:48.468Z,1011.03
2017-10-18T07:28:48.469Z,1011.07
2017-10-18T07:29:48.473Z,1011.07
2017-10-18T07:30:48.480Z,1011.07
2017-10-18T07:31:48.484Z,1011.03
2017-10-18T07:32:48.486Z,1011.02
2017-10-18T07:33:48.490Z,1011.04
2017-10-18T07:34:48.493Z,1011.01
2017-10-18T07:35:48.497Z,1011.14
2017-10-18T07:36:48.502Z,1011.12
2017-10-18T07:37:48.505Z,1011.14
2017-10-18T07:38:48.507Z,1010.50
2017-10-18T07:39:48.511Z,1010.47
2017-10-18T07:40:48.514Z,1010.44
2017-10-18T07:41:48.520Z,1010.47
2017-10-18T07:42:48.524Z,1010.47
2017-10-18T07:43:48.530Z,1010.48
2017-10-18T07:44:48.532Z,1010.44
2017-10-18T07:45:48.539Z,1010.41
2017-10-18T07:46:48.556Z,1010.44
2017-10-18T07:47:48.552Z,1010.45
2017-10-18T07:48:48.556Z,1010.47
2017-10-18T07:49:48.563Z,1010.48
2017-10-18T07:50:48.570Z,1010.55
2017-10-18T07:51:48.575Z,1010.52
2017-10-18T07:52:48.579Z,1010.49
2017-10-18T07:53:48.586Z,1010.48
2017-10-18T07:54:48.589Z,1010.50
2017-10-18T07:55:48.594Z,1010.47
2017-10-18T07:56:48.600Z,1010.46
2017-10-18T07:57:48.605Z,1010.49
2017-10-18T07:58:48.613Z,1010.46
2017-10-18T07:59:48.635Z,1010.46
2017-10-18T08:00:48.625Z,1010.52
2017-10-18T08:01:48.632Z,1010.52
2017-10-18T08:02:48.644Z,1010.47
2017-10-18T08:03:48.650Z,1010.44
2017-10-18T08:04:48.657Z,1010.48
2017-10-18T08:05:48.668Z,1010.43
2017-10-18T08:06:48.673Z,1010.46
2017-10-18T08:07:48.682Z,1010.49
2017-10-18T08:08:48.686Z,1010.53
2017-10-18T08:09:48.694Z,1010.52
2017-10-18T08:10:48.704Z,1010.52
2017-10-18T08:11:48.706Z,1010.51
2017-10-18T08:12:48.712Z,1010.51
2017-10-18T08:13:48.720Z,1010.47
2017-10-18T08:14:48.728Z,1010.48
2017-10-18T08:15:48.735Z,1010.46
2017-10-18T08:16:48.746Z,1010.44
2017-10-18T08:17:48.752Z,1010.48
2017-10-18T08:18:48.763Z,1010.50
2017-10-18T08:19:48.771Z,1010.47
2017-10-18T08:20:48.780Z,1010.51
2017-10-18T08:21:48.788Z,1010.51
2017-10-18T08:22:48.796Z,1010.53
2017-10-18T08:23:48.804Z,1010.50
2017-10-18T08:24:48.811Z,1010.51
2017-10-18T08:25:48.819Z,1010.54
2017-10-18T08:26:48.823Z,1010.55
2017-10-18T08:27:48.832Z,1010.52
2017-10-18T08:28:48.838Z,1010.49
2017-10-18T08:29:48.847Z,1010.56
2017-10-18T08:30:48.860Z,1010.59
2017-10-18T08:31:48.867Z,1010.50
2017-10-18T08:32:48.876Z,1010.52
2017-10-18T08:33:48.883Z,1010.48
2017-10-18T08:34:48.887Z,1010.51
2017-10-18T08:35:48.896Z,1010.46
2017-10-18T08:36:48.905Z,1010.46
2017-10-18T08:37:48.913Z,1010.50
2017-10-18T08:38:48.922Z,1010.49
2017-10-18T08:39:48.931Z,1010.46
2017-10-18T08:40:48.938Z,1010.48
2017-10-18T08:41:48.948Z,1010.51
2017-10-18T08:42:48.961Z,1010.51
2017-10-18T08:43:48.970Z,1010.53
2017-10-18T08:44:48.978Z,1010.54
2017-10-18T08:45:48.988Z,1010.52
2017-10-18T08:46:48.996Z,1010.53
2017-10-18T08:47:49.007Z,1010.54
2017-10-18T08:48:49.014Z,1010.52
2017-10-18T08:49:49.074Z,1010.56
2017-10-18T08:50:49.030Z,1010.63
2017-10-18T08:51:49.039Z,1010.61
2017-10-18T08:52:49.048Z,1010.61
2017-10-18T08:53:49.058Z,1010.55
2017-10-18T08:54:49.071Z,1010.58
2017-10-18T08:55:49.078Z,1010.61
2017-10-18T08:56:49.089Z,1010.59
2017-10-18T08:57:49.097Z,1010.59
2017-10-18T08:58:49.111Z,1010.63
2017-10-18T08:59:49.122Z,1010.64
2017-10-18T09:00:49.135Z,1010.62
2017-10-18T09:01:49.142Z,1010.69
2017-10-18T09:02:49.152Z,1010.71
2017-10-18T09:03:49.162Z,1010.74
2017-10-18T09:04:49.171Z,1010.73
2017-10-18T09:05:49.184Z,1010.77
2017-10-18T09:06:49.191Z,1010.75
2017-10-18T09:07:49.201Z,1010.75
2017-10-18T09:08:49.212Z,1010.77
2017-10-18T09:09:49.222Z,1010.77
2017-10-18T09:10:49.234Z,1010.75
2017-10-18T09:11:49.246Z,1010.80
2017-10-18T09:12:49.255Z,1010.79
2017-10-18T09:13:49.267Z,1010.83
2017-10-18T09:14:49.284Z,1010.73
2017-10-18T09:15:49.294Z,1010.73
2017-10-18T09:16:49.305Z,1010.74
2017-10-18T09:17:49.316Z,1010.76
2017-10-18T09:18:49.328Z,1010.77
2017-10-18T09:19:49.342Z,1010.79
2017-10-18T09:20:49.352Z,1010.80
2017-10-18T09:21:49.370Z,1010.76
2017-10-18T09:22:49.376Z,1010.72
2017-10-18T09:23:49.386Z,1010.72
2017-10-18T09:24:49.397Z,1010.73
2017-10-18T09:25:49.409Z,1010.70
2017-10-18T09:26:49.421Z,1010.75
2017-10-18T09:27:49.432Z,1010.61
2017-10-18T09:28:49.445Z,1010.74
2017-10-18T09:29:49.456Z,1010.74
2017-10-18T09:30:49.473Z,1010.73
2017-10-18T09:31:49.485Z,1010.79
2017-10-18T09:32:49.497Z,1010.85
2017-10-18T09:33:49.510Z,1010.83
2017-10-18T09:34:49.522Z,1010.79
2017-10-18T09:35:49.530Z,1010.76
2017-10-18T09:36:49.541Z,1010.60
2017-10-18T09:37:49.554Z,1010.50
2017-10-18T09:38:49.572Z,1010.51
2017-10-18T09:39:49.584Z,1010.48
2017-10-18T09:40:49.596Z,1010.47
2017-10-18T09:41:49.609Z,1010.51
2017-10-18T09:42:49.622Z,1010.44
2017-10-18T09:43:49.642Z,1010.45
2017-10-18T09:44:49.646Z,1010.41
2017-10-18T09:45:49.661Z,1010.46
2017-10-18T09:46:49.668Z,1010.44
2017-10-18T09:47:49.679Z,1010.44
2017-10-18T09:48:49.692Z,1010.43
2017-10-18T09:49:49.705Z,1010.41
2017-10-18T09:50:49.716Z,1010.43
2017-10-18T09:51:49.731Z,1010.44
2017-10-18T09:52:49.743Z,1010.43
2017-10-18T09:53:49.755Z,1010.40
2017-10-18T09:54:49.772Z,1010.41
2017-10-18T09:55:49.785Z,1010.34
2017-10-18T09:56:49.798Z,1010.40
2017-10-18T09:57:49.811Z,1010.38
2017-10-18T09:58:49.823Z,1010.37
2017-10-18T09:59:49.838Z,1010.36
2017-10-18T10:00:49.850Z,1010.31
2017-10-18T10:01:49.863Z,1010.29
2017-10-18T10:02:49.872Z,1010.31
2017-10-18T10:03:49.887Z,1010.34
2017-10-18T10:04:49.899Z,1010.37
2017-10-18T10:05:49.912Z,1010.38
2017-10-18T10:06:49.924Z,1010.38
2017-10-18T10:07:49.938Z,1010.36
2017-10-18T10:08:49.955Z,1010.37
2017-10-18T10:09:49.967Z,1010.37
2017-10-18T10:10:49.981Z,1010.39
2017-10-18T10:11:49.995Z,1010.40
2017-10-18T10:12:50.013Z,1010.44
2017-10-18T10:13:50.020Z,1010.38
2017-10-18T10:14:50.035Z,1010.34
2017-10-18T10:15:50.047Z,1010.39
2017-10-18T10:16:50.060Z,1010.36
2017-10-18T10:17:50.073Z,1010.32
2017-10-18T10:18:50.082Z,1010.31
2017-10-18T10:19:50.094Z,1010.37
2017-10-18T10:20:50.111Z,1010.36
2017-10-18T10:21:50.123Z,1010.33
2017-10-18T10:22:50.139Z,1010.38
2017-10-18T10:23:50.147Z,1010.32
2017-10-18T10:24:50.160Z,1010.43
2017-10-18T10:25:50.173Z,1010.37
2017-10-18T10:26:50.190Z,1010.35
2017-10-18T10:27:50.204Z,1010.33
2017-10-18T10:28:50.215Z,1010.36
2017-10-18T10:29:50.229Z,1010.35
2017-10-18T10:30:50.243Z,1010.30
2017-10-18T10:31:50.258Z,1010.32
2017-10-18T10:32:50.266Z,1010.35
2017-10-18T10:33:50.279Z,1010.32
2017-10-18T10:34:50.287Z,1010.31
2017-10-18T10:35:50.301Z,1010.29
2017-10-18T10:36:50.312Z,1010.30
2017-10-18T10:37:50.326Z,1010.28
2017-10-18T10:38:50.342Z,1010.32
2017-10-18T10:39:50.355Z,1010.29
2017-10-18T10:40:50.366Z,1010.26
2017-10-18T10:41:50.380Z,1010.27
2017-10-18T10:42:50.388Z,1010.23
2017-10-18T10:43:50.399Z,1010.22
2017-10-18T10:44:50.412Z,1010.22
2017-10-18T10:45:50.423Z,1010.25
2017-10-18T10:46:50.435Z,1010.24
2017-10-18T10:47:50.448Z,1010.20
2017-10-18T10:48:50.459Z,1010.22
2017-10-18T10:49:50.470Z,1010.25
2017-10-18T10:50:50.488Z,1010.23
2017-10-18T10:51:50.500Z,1010.26
2017-10-18T10:52:50.511Z,1010.25
2017-10-18T10:53:50.522Z,1010.21
2017-10-18T10:54:50.537Z,1010.17
2017-10-18T10:55:50.547Z,1010.19
2017-10-18T10:56:50.568Z,1010.16
2017-10-18T10:57:50.570Z,1010.16
2017-10-18T10:58:50.579Z,1010.16
2017-10-18T10:59:50.595Z,1010.15
2017-10-18T11:00:50.602Z,1010.12
2017-10-18T11:01:50.616Z,1010.19
2017-10-18T11:02:50.628Z,1010.16
2017-10-18T11:03:50.640Z,1010.17
2017-10-18T11:04:50.652Z,1010.16
2017-10-18T11:05:50.663Z,1010.21
2017-10-18T11:06:50.688Z,1010.15
2017-10-18T11:07:50.691Z,1010.12
2017-10-18T11:08:50.703Z,1010.14
2017-10-18T11:09:50.715Z,1010.09
2017-10-18T11:10:50.727Z,1010.06
2017-10-18T11:11:50.739Z,1010.01
2017-10-18T11:12:50.752Z,1010.05
2017-10-18T11:13:50.761Z,1009.93
2017-10-18T11:14:50.768Z,1009.94
2017-10-18T11:15:50.781Z,1009.88
2017-10-18T11:16:50.789Z,1009.86
2017-10-18T11:17:50.802Z,1009.82
2017-10-18T11:18:50.812Z,1009.85
2017-10-18T11:19:50.822Z,1009.78
2017-10-18T11:20:50.880Z,1009.78
2017-10-18T11:21:50.840Z,1009.77
2017-10-18T11:22:50.853Z,1009.69
2017-10-18T11:23:50.863Z,1009.63
2017-10-18T11:24:50.868Z,1009.69
2017-10-18T11:25:50.877Z,1009.67
2017-10-18T11:26:50.886Z,1009.64
2017-10-18T11:27:50.894Z,1009.66
2017-10-18T11:28:50.899Z,1009.64
2017-10-18T11:29:50.908Z,1009.60
2017-10-18T11:30:50.911Z,1009.55
2017-10-18T11:31:50.933Z,1009.51
2017-10-18T11:32:50.924Z,1009.55
2017-10-18T11:33:50.930Z,1009.51
2017-10-18T11:34:50.938Z,1009.49
2017-10-18T11:35:50.944Z,1009.51
2017-10-18T11:36:50.949Z,1009.44
2017-10-18T11:37:50.957Z,1009.47
2017-10-18T11:38:50.966Z,1009.50
2017-10-18T11:39:50.971Z,1009.49
2017-10-18T11:40:50.976Z,1009.47
2017-10-18T11:41:50.983Z,1009.47
2017-10-18T11:42:50.984Z,1009.42
2017-10-18T11:43:50.989Z,1009.44
2017-10-18T11:44:50.997Z,1009.42
2017-10-18T11:45:51.000Z,1009.46
2017-10-18T11:46:51.009Z,1009.45
2017-10-18T11:47:51.013Z,1009.35
2017-10-18T11:48:51.020Z,1009.40
2017-10-18T11:49:51.023Z,1009.38
2017-10-18T11:50:51.028Z,1009.39
2017-10-18T11:51:51.034Z,1009.31
2017-10-18T11:52:51.043Z,1009.30
2017-10-18T11:53:51.059Z,1009.30
2017-10-18T11:54:51.042Z,1009.26
2017-10-18T11:55:51.050Z,1009.29
2017-10-18T11:56:51.050Z,1009.28
2017-10-18T11:57:51.060Z,1009.30
2017-10-18T11:58:51.060Z,1009.30
2017-10-18T11:59:51.064Z,1009.32
2017-10-18T12:00:51.069Z,1009.24
2017-10-18T12:01:51.073Z,1009.25
2017-10-18T12:02:51.080Z,1009.27
2017-10-18T12:03:51.086Z,1009.24
2017-10-18T12:04:51.090Z,1009.23
2017-10-18T12:05:51.092Z,1009.18